ASA218 KPAE-KLAS
Flight info
| Callsign | ASA218 |
|---|---|
| Flight time | 2h 0m |
| Altitude | 35000 |
| Route | SEA J5 LKV RYANN J92 OAL TQILA COKTL4 |
| Aircraft | B739/M-SDE2E3FGHIRWXY/L |
Departure
| Time | 2026-05-08 05:33 |
|---|---|
| Airport | Seattle Paine Field International Airport (KPAE) |
Arrival
| Time | 2026-05-08 07:34 |
|---|---|
| Airport | Harry Reid International Airport (KLAS) |
| Time | Latitude | Longitude | Altitude | Speed | Heading |
|---|---|---|---|---|---|
| 2026-05-08 05:07 | 47.90812 | -122.27898 | 566 ft | 0 kts | 63° |
| 2026-05-08 05:22 | 47.90808 | -122.27908 | 571 ft | 3 kts | 63° |
| 2026-05-08 05:22 | 47.90799 | -122.27933 | 567 ft | 1 kts | 63° |
| 2026-05-08 05:22 | 47.90793 | -122.27956 | 571 ft | 3 kts | 90° |
| 2026-05-08 05:22 | 47.90797 | -122.27983 | 568 ft | 3 kts | 124° |
| 2026-05-08 05:23 | 47.90810 | -122.28006 | 572 ft | 3 kts | 134° |
| 2026-05-08 05:23 | 47.90815 | -122.28014 | 570 ft | 0 kts | 134° |
| 2026-05-08 05:27 | 47.90814 | -122.28014 | 566 ft | 1 kts | 134° |
| 2026-05-08 05:27 | 47.90800 | -122.27993 | 569 ft | 5 kts | 138° |
| 2026-05-08 05:28 | 47.90765 | -122.27994 | 569 ft | 6 kts | 236° |
| 2026-05-08 05:28 | 47.90758 | -122.28069 | 566 ft | 8 kts | 268° |
| 2026-05-08 05:28 | 47.90793 | -122.28161 | 566 ft | 12 kts | 324° |
| 2026-05-08 05:28 | 47.90863 | -122.28244 | 570 ft | 13 kts | 315° |
| 2026-05-08 05:29 | 47.90933 | -122.28336 | 566 ft | 13 kts | 340° |
| 2026-05-08 05:29 | 47.91027 | -122.28343 | 567 ft | 14 kts | 359° |
| 2026-05-08 05:29 | 47.91126 | -122.28345 | 568 ft | 15 kts | 359° |
| 2026-05-08 05:29 | 47.91229 | -122.28347 | 568 ft | 15 kts | 359° |
| 2026-05-08 05:30 | 47.91328 | -122.28349 | 568 ft | 14 kts | 359° |
| 2026-05-08 05:30 | 47.91423 | -122.28351 | 568 ft | 13 kts | 359° |
| 2026-05-08 05:30 | 47.91514 | -122.28353 | 571 ft | 13 kts | 359° |
| 2026-05-08 05:30 | 47.91607 | -122.28355 | 569 ft | 17 kts | 359° |
| 2026-05-08 05:31 | 47.91747 | -122.28366 | 570 ft | 22 kts | 355° |
| 2026-05-08 05:31 | 47.91902 | -122.28385 | 566 ft | 20 kts | 355° |
| 2026-05-08 05:31 | 47.92005 | -122.28397 | 570 ft | 13 kts | 356° |
| 2026-05-08 05:31 | 47.92089 | -122.28409 | 572 ft | 12 kts | 353° |
| 2026-05-08 05:32 | 47.92150 | -122.28468 | 571 ft | 11 kts | 285° |
| 2026-05-08 05:32 | 47.92139 | -122.28573 | 571 ft | 10 kts | 226° |
| 2026-05-08 05:32 | 47.92068 | -122.28585 | 572 ft | 15 kts | 179° |
| 2026-05-08 05:32 | 47.91698 | -122.28576 | 566 ft | 93 kts | 179° |
| 2026-05-08 05:33 | 47.90804 | -122.28556 | 573 ft | 160 kts | 178° |
| 2026-05-08 05:33 | 47.89561 | -122.28545 | 925 ft | 185 kts | 179° |
| 2026-05-08 05:33 | 47.88286 | -122.28567 | 1973 ft | 181 kts | 180° |
| 2026-05-08 05:33 | 47.86989 | -122.28521 | 2623 ft | 199 kts | 178° |
| 2026-05-08 05:34 | 47.85530 | -122.28426 | 2859 ft | 222 kts | 178° |
| 2026-05-08 05:34 | 47.83932 | -122.28316 | 3117 ft | 235 kts | 178° |
| 2026-05-08 05:34 | 47.82277 | -122.28378 | 3435 ft | 245 kts | 194° |
| 2026-05-08 05:34 | 47.80744 | -122.29596 | 3687 ft | 258 kts | 225° |
| 2026-05-08 05:35 | 47.79803 | -122.31828 | 4273 ft | 261 kts | 250° |
| 2026-05-08 05:35 | 47.79260 | -122.34430 | 4984 ft | 263 kts | 254° |
| 2026-05-08 05:35 | 47.78771 | -122.37075 | 5601 ft | 267 kts | 255° |
| 2026-05-08 05:35 | 47.78288 | -122.39767 | 6261 ft | 270 kts | 255° |
| 2026-05-08 05:36 | 47.77796 | -122.42478 | 6890 ft | 272 kts | 250° |
| 2026-05-08 05:36 | 47.76820 | -122.44866 | 7476 ft | 274 kts | 223° |
| 2026-05-08 05:36 | 47.75292 | -122.46517 | 8098 ft | 276 kts | 212° |
| 2026-05-08 05:36 | 47.73628 | -122.47975 | 8695 ft | 279 kts | 210° |
| 2026-05-08 05:37 | 47.71927 | -122.49402 | 9320 ft | 281 kts | 210° |
| 2026-05-08 05:37 | 47.70208 | -122.50821 | 9940 ft | 284 kts | 210° |
| 2026-05-08 05:37 | 47.68426 | -122.52201 | 10280 ft | 298 kts | 202° |
| 2026-05-08 05:37 | 47.66314 | -122.52699 | 10415 ft | 320 kts | 178° |
| 2026-05-08 05:38 | 47.64056 | -122.52258 | 10566 ft | 338 kts | 171° |
| 2026-05-08 05:38 | 47.61676 | -122.51597 | 10691 ft | 356 kts | 170° |
| 2026-05-08 05:38 | 47.59203 | -122.50875 | 10902 ft | 369 kts | 170° |
| 2026-05-08 05:38 | 47.56688 | -122.50132 | 11327 ft | 374 kts | 170° |
| 2026-05-08 05:39 | 47.54106 | -122.49362 | 11869 ft | 376 kts | 170° |
| 2026-05-08 05:39 | 47.51555 | -122.48596 | 12392 ft | 378 kts | 170° |
| 2026-05-08 05:39 | 47.48974 | -122.47703 | 12911 ft | 383 kts | 163° |
| 2026-05-08 05:39 | 47.46473 | -122.46257 | 13410 ft | 388 kts | 158° |
| 2026-05-08 05:40 | 47.44015 | -122.44564 | 13925 ft | 391 kts | 156° |
| 2026-05-08 05:40 | 47.41556 | -122.42815 | 14392 ft | 395 kts | 156° |
| 2026-05-08 05:40 | 47.39051 | -122.41058 | 14858 ft | 398 kts | 157° |
| 2026-05-08 05:40 | 47.36563 | -122.39356 | 15339 ft | 401 kts | 158° |
| 2026-05-08 05:41 | 47.34011 | -122.37650 | 15807 ft | 404 kts | 158° |
| 2026-05-08 05:41 | 47.31426 | -122.35948 | 16239 ft | 408 kts | 159° |
| 2026-05-08 05:41 | 47.28843 | -122.34263 | 16697 ft | 411 kts | 159° |
| 2026-05-08 05:41 | 47.26210 | -122.32553 | 17129 ft | 415 kts | 159° |
| 2026-05-08 05:42 | 47.23565 | -122.30841 | 17580 ft | 418 kts | 159° |
| 2026-05-08 05:42 | 47.20871 | -122.29100 | 18044 ft | 421 kts | 159° |
| 2026-05-08 05:42 | 47.18215 | -122.27385 | 18470 ft | 424 kts | 159° |
| 2026-05-08 05:42 | 47.15491 | -122.25627 | 18855 ft | 427 kts | 159° |
| 2026-05-08 05:43 | 47.12793 | -122.23888 | 19240 ft | 429 kts | 160° |
| 2026-05-08 05:43 | 47.10005 | -122.22146 | 19620 ft | 431 kts | 160° |
| 2026-05-08 05:43 | 47.07308 | -122.20401 | 19981 ft | 434 kts | 159° |
| 2026-05-08 05:43 | 47.04523 | -122.18587 | 20362 ft | 437 kts | 159° |
| 2026-05-08 05:44 | 47.01765 | -122.16799 | 20746 ft | 439 kts | 160° |
| 2026-05-08 05:44 | 46.98955 | -122.14989 | 21141 ft | 441 kts | 160° |
| 2026-05-08 05:44 | 46.96137 | -122.13174 | 21528 ft | 443 kts | 160° |
| 2026-05-08 05:44 | 46.93293 | -122.11357 | 21910 ft | 445 kts | 160° |
| 2026-05-08 05:45 | 46.90401 | -122.09763 | 22262 ft | 444 kts | 167° |
| 2026-05-08 05:45 | 46.87400 | -122.08585 | 22610 ft | 445 kts | 169° |
| 2026-05-08 05:45 | 46.84389 | -122.07477 | 22939 ft | 448 kts | 170° |
| 2026-05-08 05:45 | 46.81388 | -122.06366 | 23250 ft | 452 kts | 169° |
| 2026-05-08 05:46 | 46.78313 | -122.05205 | 23606 ft | 454 kts | 169° |
| 2026-05-08 05:46 | 46.75363 | -122.04073 | 23894 ft | 456 kts | 169° |
| 2026-05-08 05:46 | 46.72269 | -122.02873 | 24181 ft | 458 kts | 169° |
| 2026-05-08 05:46 | 46.69205 | -122.01679 | 24476 ft | 459 kts | 169° |
| 2026-05-08 05:47 | 46.67169 | -122.00885 | 24666 ft | 461 kts | 169° |
| 2026-05-08 05:47 | 46.64198 | -121.99733 | 24925 ft | 462 kts | 169° |
| 2026-05-08 05:47 | 46.60060 | -121.98126 | 25305 ft | 465 kts | 169° |
| 2026-05-08 05:47 | 46.56920 | -121.96923 | 25555 ft | 467 kts | 169° |
| 2026-05-08 05:48 | 46.54790 | -121.96111 | 25748 ft | 468 kts | 169° |
| 2026-05-08 05:48 | 46.51664 | -121.94907 | 26036 ft | 470 kts | 169° |
| 2026-05-08 05:48 | 46.48496 | -121.93684 | 26285 ft | 472 kts | 169° |
| 2026-05-08 05:48 | 46.45300 | -121.92451 | 26523 ft | 475 kts | 169° |
| 2026-05-08 05:49 | 46.42094 | -121.91217 | 26767 ft | 477 kts | 169° |
| 2026-05-08 05:49 | 46.38874 | -121.90002 | 27014 ft | 478 kts | 169° |
| 2026-05-08 05:49 | 46.35646 | -121.88767 | 27275 ft | 480 kts | 169° |
| 2026-05-08 05:49 | 46.32443 | -121.87533 | 27521 ft | 482 kts | 169° |
| 2026-05-08 05:50 | 46.29192 | -121.86282 | 27757 ft | 484 kts | 169° |
| 2026-05-08 05:50 | 46.25920 | -121.85024 | 27980 ft | 487 kts | 169° |
| 2026-05-08 05:50 | 46.22635 | -121.83769 | 28184 ft | 489 kts | 169° |
| 2026-05-08 05:50 | 46.19324 | -121.82517 | 28442 ft | 490 kts | 169° |
| 2026-05-08 05:51 | 46.16119 | -121.81298 | 28800 ft | 489 kts | 169° |
| 2026-05-08 05:51 | 46.12891 | -121.80068 | 29200 ft | 487 kts | 169° |
| 2026-05-08 05:51 | 46.09602 | -121.78816 | 29630 ft | 485 kts | 169° |
| 2026-05-08 05:51 | 46.06349 | -121.77579 | 30075 ft | 483 kts | 169° |
| 2026-05-08 05:52 | 46.03083 | -121.76342 | 30378 ft | 483 kts | 169° |
| 2026-05-08 05:52 | 45.99810 | -121.75105 | 30590 ft | 485 kts | 169° |
| 2026-05-08 05:52 | 45.96536 | -121.73870 | 30839 ft | 486 kts | 169° |
| 2026-05-08 05:52 | 45.93271 | -121.72640 | 31217 ft | 483 kts | 169° |
| 2026-05-08 05:53 | 45.90067 | -121.71432 | 31566 ft | 481 kts | 169° |
| 2026-05-08 05:53 | 45.86810 | -121.70205 | 31838 ft | 482 kts | 169° |
| 2026-05-08 05:53 | 45.83561 | -121.68982 | 32093 ft | 482 kts | 169° |
| 2026-05-08 05:53 | 45.80318 | -121.67765 | 32324 ft | 483 kts | 169° |
| 2026-05-08 05:54 | 45.77055 | -121.66544 | 32560 ft | 484 kts | 169° |
| 2026-05-08 05:54 | 45.73833 | -121.65346 | 32828 ft | 483 kts | 169° |
| 2026-05-08 05:54 | 45.70580 | -121.64128 | 33141 ft | 481 kts | 169° |
| 2026-05-08 05:54 | 45.67340 | -121.62915 | 33420 ft | 481 kts | 169° |
| 2026-05-08 05:55 | 45.64094 | -121.61705 | 33649 ft | 481 kts | 169° |
| 2026-05-08 05:55 | 45.60886 | -121.60515 | 33894 ft | 481 kts | 168° |
| 2026-05-08 05:55 | 45.57650 | -121.59308 | 34173 ft | 479 kts | 169° |
| 2026-05-08 05:55 | 45.54460 | -121.58116 | 34451 ft | 477 kts | 169° |
| 2026-05-08 05:56 | 45.51232 | -121.56914 | 34685 ft | 476 kts | 169° |
| 2026-05-08 05:56 | 45.48018 | -121.55720 | 34861 ft | 476 kts | 169° |
| 2026-05-08 05:56 | 45.44840 | -121.54543 | 35032 ft | 477 kts | 169° |
| 2026-05-08 05:57 | 45.38737 | -121.52287 | 35043 ft | 477 kts | 168° |
| 2026-05-08 05:57 | 45.32393 | -121.49946 | 35037 ft | 474 kts | 169° |
| 2026-05-08 05:58 | 45.26042 | -121.47607 | 35061 ft | 472 kts | 169° |
| 2026-05-08 05:58 | 45.19665 | -121.45265 | 35043 ft | 471 kts | 168° |
| 2026-05-08 05:59 | 45.13337 | -121.42946 | 35048 ft | 470 kts | 168° |
| 2026-05-08 05:59 | 45.06991 | -121.40627 | 35037 ft | 471 kts | 168° |
| 2026-05-08 06:00 | 45.00673 | -121.38325 | 35036 ft | 472 kts | 168° |
| 2026-05-08 06:00 | 44.94288 | -121.36001 | 35045 ft | 473 kts | 168° |
| 2026-05-08 06:01 | 44.87888 | -121.33675 | 35041 ft | 475 kts | 168° |
| 2026-05-08 06:01 | 44.81495 | -121.31359 | 35043 ft | 477 kts | 168° |
| 2026-05-08 06:02 | 44.75057 | -121.29033 | 35034 ft | 477 kts | 168° |
| 2026-05-08 06:02 | 44.68626 | -121.26713 | 35036 ft | 478 kts | 168° |
| 2026-05-08 06:03 | 44.62214 | -121.24405 | 35044 ft | 478 kts | 168° |
| 2026-05-08 06:03 | 44.55756 | -121.22086 | 35036 ft | 478 kts | 168° |
| 2026-05-08 06:04 | 44.49295 | -121.19773 | 35043 ft | 478 kts | 168° |
| 2026-05-08 06:04 | 44.42874 | -121.17478 | 35038 ft | 478 kts | 168° |
| 2026-05-08 06:05 | 44.36429 | -121.15180 | 35032 ft | 478 kts | 168° |
| 2026-05-08 06:05 | 44.29984 | -121.12887 | 35039 ft | 477 kts | 168° |
| 2026-05-08 06:06 | 44.23538 | -121.10598 | 35092 ft | 477 kts | 168° |
| 2026-05-08 06:06 | 44.17079 | -121.08311 | 35089 ft | 477 kts | 168° |
| 2026-05-08 06:07 | 44.10681 | -121.06053 | 35092 ft | 477 kts | 168° |
| 2026-05-08 06:07 | 44.04245 | -121.03789 | 35089 ft | 477 kts | 168° |
| 2026-05-08 06:08 | 43.97798 | -121.01524 | 35074 ft | 476 kts | 168° |
| 2026-05-08 06:08 | 43.91362 | -120.99268 | 35079 ft | 476 kts | 168° |
| 2026-05-08 06:09 | 43.84954 | -120.97026 | 35066 ft | 476 kts | 168° |
| 2026-05-08 06:09 | 43.78519 | -120.94781 | 35071 ft | 476 kts | 168° |
| 2026-05-08 06:10 | 43.72075 | -120.92536 | 35067 ft | 476 kts | 168° |
| 2026-05-08 06:10 | 43.65637 | -120.90299 | 35076 ft | 476 kts | 168° |
| 2026-05-08 06:11 | 43.59222 | -120.88075 | 35074 ft | 476 kts | 168° |
| 2026-05-08 06:11 | 43.52791 | -120.85850 | 35080 ft | 476 kts | 168° |
| 2026-05-08 06:12 | 43.46439 | -120.83656 | 35074 ft | 476 kts | 168° |
| 2026-05-08 06:12 | 43.40014 | -120.81444 | 35079 ft | 475 kts | 168° |
| 2026-05-08 06:13 | 43.33602 | -120.79240 | 35088 ft | 475 kts | 168° |
| 2026-05-08 06:13 | 43.27177 | -120.77037 | 35083 ft | 475 kts | 168° |
| 2026-05-08 06:14 | 43.20791 | -120.74851 | 35083 ft | 475 kts | 169° |
| 2026-05-08 06:14 | 43.14370 | -120.72659 | 35095 ft | 475 kts | 169° |
| 2026-05-08 06:15 | 43.07942 | -120.70469 | 35087 ft | 475 kts | 169° |
| 2026-05-08 06:15 | 43.01547 | -120.68296 | 35086 ft | 475 kts | 168° |
| 2026-05-08 06:16 | 42.95121 | -120.66114 | 35089 ft | 475 kts | 168° |
| 2026-05-08 06:16 | 42.88739 | -120.63953 | 35096 ft | 475 kts | 168° |
| 2026-05-08 06:17 | 42.79100 | -120.60699 | 35100 ft | 476 kts | 168° |
| 2026-05-08 06:17 | 42.72671 | -120.58534 | 35102 ft | 476 kts | 168° |
| 2026-05-08 06:18 | 42.66205 | -120.56368 | 35098 ft | 476 kts | 168° |
| 2026-05-08 06:18 | 42.59801 | -120.54216 | 35096 ft | 477 kts | 168° |
| 2026-05-08 06:19 | 42.53346 | -120.52051 | 35105 ft | 476 kts | 168° |
| 2026-05-08 06:19 | 42.46961 | -120.49881 | 35111 ft | 477 kts | 167° |
| 2026-05-08 06:20 | 42.40606 | -120.47386 | 35116 ft | 477 kts | 165° |
| 2026-05-08 06:20 | 42.34261 | -120.44799 | 35120 ft | 477 kts | 165° |
| 2026-05-08 06:21 | 42.27908 | -120.42250 | 35114 ft | 476 kts | 166° |
| 2026-05-08 06:21 | 42.21536 | -120.39732 | 35120 ft | 476 kts | 166° |
| 2026-05-08 06:22 | 42.15178 | -120.37237 | 35175 ft | 475 kts | 166° |
| 2026-05-08 06:22 | 42.08848 | -120.34758 | 35173 ft | 475 kts | 166° |
| 2026-05-08 06:23 | 42.02558 | -120.32298 | 35156 ft | 474 kts | 166° |
| 2026-05-08 06:23 | 41.96255 | -120.29838 | 35141 ft | 474 kts | 165° |
| 2026-05-08 06:24 | 41.89923 | -120.27372 | 35122 ft | 474 kts | 165° |
| 2026-05-08 06:24 | 41.83610 | -120.24917 | 35102 ft | 474 kts | 165° |
| 2026-05-08 06:25 | 41.77274 | -120.22460 | 35097 ft | 474 kts | 165° |
| 2026-05-08 06:25 | 41.70964 | -120.20017 | 35073 ft | 474 kts | 165° |
| 2026-05-08 06:26 | 41.64627 | -120.17568 | 35078 ft | 473 kts | 165° |
| 2026-05-08 06:26 | 41.59352 | -120.15534 | 35069 ft | 473 kts | 165° |
| 2026-05-08 06:27 | 41.53013 | -120.13094 | 35056 ft | 473 kts | 165° |
| 2026-05-08 06:27 | 41.46702 | -120.10670 | 35069 ft | 473 kts | 165° |
| 2026-05-08 06:28 | 41.40373 | -120.08244 | 35067 ft | 472 kts | 165° |
| 2026-05-08 06:28 | 41.34087 | -120.05839 | 35063 ft | 472 kts | 165° |
| 2026-05-08 06:29 | 41.27772 | -120.03428 | 35063 ft | 472 kts | 165° |
| 2026-05-08 06:29 | 41.21467 | -120.01025 | 35060 ft | 471 kts | 165° |
| 2026-05-08 06:30 | 41.15147 | -119.98622 | 35059 ft | 471 kts | 165° |
| 2026-05-08 06:30 | 41.08841 | -119.96229 | 35053 ft | 471 kts | 165° |
| 2026-05-08 06:31 | 41.02576 | -119.93855 | 35058 ft | 470 kts | 165° |
| 2026-05-08 06:31 | 40.96283 | -119.91477 | 35052 ft | 469 kts | 165° |
| 2026-05-08 06:32 | 40.90012 | -119.89111 | 35043 ft | 468 kts | 165° |
| 2026-05-08 06:32 | 40.83744 | -119.86751 | 35042 ft | 467 kts | 165° |
| 2026-05-08 06:33 | 40.77496 | -119.84403 | 35045 ft | 466 kts | 165° |
| 2026-05-08 06:33 | 40.71303 | -119.82080 | 35027 ft | 465 kts | 165° |
| 2026-05-08 06:34 | 40.65037 | -119.79735 | 35043 ft | 469 kts | 165° |
| 2026-05-08 06:34 | 40.58741 | -119.77384 | 35035 ft | 470 kts | 165° |
| 2026-05-08 06:35 | 40.52434 | -119.75032 | 35036 ft | 470 kts | 165° |
| 2026-05-08 06:35 | 40.46167 | -119.72700 | 35030 ft | 470 kts | 165° |
| 2026-05-08 06:36 | 40.39871 | -119.70361 | 35024 ft | 469 kts | 165° |
| 2026-05-08 06:36 | 40.33626 | -119.68046 | 35026 ft | 467 kts | 165° |
| 2026-05-08 06:37 | 40.27377 | -119.65734 | 35020 ft | 466 kts | 165° |
| 2026-05-08 06:37 | 40.21125 | -119.63426 | 35029 ft | 464 kts | 165° |
| 2026-05-08 06:38 | 40.14915 | -119.61137 | 35030 ft | 462 kts | 165° |
| 2026-05-08 06:38 | 40.08742 | -119.58866 | 35029 ft | 461 kts | 165° |
| 2026-05-08 06:39 | 40.02598 | -119.56610 | 35031 ft | 460 kts | 165° |
| 2026-05-08 06:39 | 39.96440 | -119.54354 | 35027 ft | 459 kts | 165° |
| 2026-05-08 06:40 | 39.90261 | -119.52095 | 35040 ft | 463 kts | 165° |
| 2026-05-08 06:40 | 39.84033 | -119.49820 | 35052 ft | 465 kts | 165° |
| 2026-05-08 06:41 | 39.77779 | -119.47541 | 35048 ft | 466 kts | 165° |
| 2026-05-08 06:41 | 39.71563 | -119.45279 | 35047 ft | 466 kts | 165° |
| 2026-05-08 06:42 | 39.65325 | -119.43018 | 35061 ft | 466 kts | 166° |
| 2026-05-08 06:42 | 39.59118 | -119.40763 | 35073 ft | 465 kts | 166° |
| 2026-05-08 06:43 | 39.52885 | -119.38511 | 35070 ft | 464 kts | 166° |
| 2026-05-08 06:43 | 39.46707 | -119.36280 | 35055 ft | 463 kts | 166° |
| 2026-05-08 06:44 | 39.40684 | -119.34109 | 35036 ft | 462 kts | 166° |
| 2026-05-08 06:44 | 39.34481 | -119.31877 | 35029 ft | 462 kts | 166° |
| 2026-05-08 06:45 | 39.28275 | -119.29646 | 35030 ft | 461 kts | 166° |
| 2026-05-08 06:45 | 39.22455 | -119.26273 | 35045 ft | 464 kts | 148° |
| 2026-05-08 06:46 | 39.19889 | -119.23728 | 35014 ft | 466 kts | 137° |
| 2026-05-08 06:46 | 39.17555 | -119.20808 | 35039 ft | 465 kts | 136° |
| 2026-05-08 06:46 | 39.12976 | -119.14923 | 35016 ft | 466 kts | 136° |
| 2026-05-08 06:47 | 39.08367 | -119.09100 | 35007 ft | 467 kts | 136° |
| 2026-05-08 06:47 | 39.03738 | -119.03333 | 35021 ft | 467 kts | 136° |
| 2026-05-08 06:48 | 38.99064 | -118.97524 | 35002 ft | 468 kts | 136° |
| 2026-05-08 06:48 | 38.94397 | -118.91735 | 35009 ft | 469 kts | 136° |
| 2026-05-08 06:49 | 38.90939 | -118.87452 | 35003 ft | 469 kts | 136° |
| 2026-05-08 06:49 | 38.86282 | -118.81689 | 35013 ft | 469 kts | 136° |
| 2026-05-08 06:50 | 38.81604 | -118.75912 | 35004 ft | 469 kts | 136° |
| 2026-05-08 06:50 | 38.76895 | -118.70107 | 35008 ft | 469 kts | 136° |
| 2026-05-08 06:51 | 38.72204 | -118.64336 | 35005 ft | 468 kts | 136° |
| 2026-05-08 06:51 | 38.67553 | -118.58625 | 35023 ft | 468 kts | 136° |
| 2026-05-08 06:52 | 38.65241 | -118.55790 | 35129 ft | 468 kts | 136° |
| 2026-05-08 06:52 | 38.62899 | -118.52920 | 35130 ft | 468 kts | 136° |
| 2026-05-08 06:52 | 38.58193 | -118.47162 | 35126 ft | 467 kts | 136° |
| 2026-05-08 06:53 | 38.53502 | -118.41432 | 35109 ft | 467 kts | 136° |
| 2026-05-08 06:53 | 38.48834 | -118.35739 | 35074 ft | 466 kts | 136° |
| 2026-05-08 06:54 | 38.44295 | -118.30201 | 35052 ft | 467 kts | 136° |
| 2026-05-08 06:54 | 38.39586 | -118.24463 | 35018 ft | 467 kts | 136° |
| 2026-05-08 06:55 | 38.34907 | -118.18770 | 35000 ft | 467 kts | 136° |
| 2026-05-08 06:55 | 38.30186 | -118.13039 | 34997 ft | 467 kts | 136° |
| 2026-05-08 06:56 | 38.25478 | -118.07334 | 35003 ft | 468 kts | 136° |
| 2026-05-08 06:56 | 38.20785 | -118.01658 | 34998 ft | 468 kts | 136° |
| 2026-05-08 06:57 | 38.16045 | -117.95937 | 35000 ft | 469 kts | 136° |
| 2026-05-08 06:57 | 38.11304 | -117.90223 | 34990 ft | 469 kts | 136° |
| 2026-05-08 06:58 | 38.06594 | -117.84557 | 34986 ft | 469 kts | 136° |
| 2026-05-08 06:58 | 38.01866 | -117.78880 | 34983 ft | 469 kts | 136° |
| 2026-05-08 06:59 | 37.97055 | -117.73286 | 34976 ft | 469 kts | 139° |
| 2026-05-08 06:59 | 37.92075 | -117.67940 | 34978 ft | 469 kts | 140° |
| 2026-05-08 07:00 | 37.87115 | -117.62641 | 34968 ft | 469 kts | 140° |
| 2026-05-08 07:00 | 37.82146 | -117.57280 | 34976 ft | 468 kts | 139° |
| 2026-05-08 07:01 | 37.77181 | -117.51904 | 34971 ft | 468 kts | 139° |
| 2026-05-08 07:01 | 37.72262 | -117.46586 | 34970 ft | 468 kts | 139° |
| 2026-05-08 07:02 | 37.67312 | -117.41245 | 34971 ft | 468 kts | 139° |
| 2026-05-08 07:02 | 37.62352 | -117.35904 | 34966 ft | 468 kts | 139° |
| 2026-05-08 07:03 | 37.57429 | -117.30613 | 34982 ft | 467 kts | 139° |
| 2026-05-08 07:03 | 37.52470 | -117.25292 | 34975 ft | 468 kts | 139° |
| 2026-05-08 07:04 | 37.47499 | -117.19972 | 34977 ft | 468 kts | 140° |
| 2026-05-08 07:04 | 37.42237 | -117.15212 | 34994 ft | 468 kts | 146° |
| 2026-05-08 07:05 | 37.36808 | -117.10687 | 34972 ft | 468 kts | 146° |
| 2026-05-08 07:05 | 37.31461 | -117.06055 | 34969 ft | 468 kts | 145° |
| 2026-05-08 07:06 | 37.26990 | -117.02169 | 34983 ft | 469 kts | 145° |
| 2026-05-08 07:06 | 37.21617 | -116.97516 | 34964 ft | 469 kts | 145° |
| 2026-05-08 07:07 | 37.16238 | -116.92868 | 34954 ft | 469 kts | 145° |
| 2026-05-08 07:07 | 37.10850 | -116.88218 | 34955 ft | 470 kts | 145° |
| 2026-05-08 07:08 | 37.05448 | -116.83569 | 34944 ft | 471 kts | 145° |
| 2026-05-08 07:08 | 37.00075 | -116.78952 | 34937 ft | 471 kts | 145° |
| 2026-05-08 07:09 | 36.94651 | -116.74298 | 34923 ft | 472 kts | 145° |
| 2026-05-08 07:09 | 36.91926 | -116.71963 | 34536 ft | 480 kts | 145° |
| 2026-05-08 07:09 | 36.89184 | -116.69614 | 33872 ft | 483 kts | 145° |
| 2026-05-08 07:10 | 36.86417 | -116.67247 | 32999 ft | 478 kts | 144° |
| 2026-05-08 07:10 | 36.83668 | -116.64898 | 32241 ft | 476 kts | 144° |
| 2026-05-08 07:10 | 36.80930 | -116.62560 | 31411 ft | 477 kts | 145° |
| 2026-05-08 07:10 | 36.78199 | -116.60229 | 30864 ft | 473 kts | 145° |
| 2026-05-08 07:11 | 36.75496 | -116.57924 | 30295 ft | 469 kts | 145° |
| 2026-05-08 07:11 | 36.72813 | -116.55638 | 29692 ft | 466 kts | 145° |
| 2026-05-08 07:11 | 36.70173 | -116.53391 | 29057 ft | 462 kts | 144° |
| 2026-05-08 07:11 | 36.67524 | -116.51139 | 28491 ft | 458 kts | 144° |
| 2026-05-08 07:12 | 36.64971 | -116.48790 | 27916 ft | 452 kts | 138° |
| 2026-05-08 07:12 | 36.62775 | -116.46031 | 27391 ft | 446 kts | 129° |
| 2026-05-08 07:12 | 36.60751 | -116.43109 | 26839 ft | 442 kts | 129° |
| 2026-05-08 07:12 | 36.58752 | -116.40204 | 26282 ft | 439 kts | 129° |
| 2026-05-08 07:13 | 36.56781 | -116.37361 | 25762 ft | 436 kts | 129° |
| 2026-05-08 07:13 | 36.54793 | -116.34523 | 25227 ft | 434 kts | 130° |
| 2026-05-08 07:13 | 36.52809 | -116.31712 | 24703 ft | 431 kts | 129° |
| 2026-05-08 07:13 | 36.50830 | -116.28921 | 24157 ft | 429 kts | 130° |
| 2026-05-08 07:14 | 36.48853 | -116.26137 | 23614 ft | 428 kts | 130° |
| 2026-05-08 07:14 | 36.46891 | -116.23377 | 23348 ft | 419 kts | 129° |
| 2026-05-08 07:14 | 36.44996 | -116.20713 | 22999 ft | 412 kts | 129° |
| 2026-05-08 07:14 | 36.43093 | -116.18040 | 22456 ft | 410 kts | 129° |
| 2026-05-08 07:15 | 36.41216 | -116.15405 | 21979 ft | 407 kts | 129° |
| 2026-05-08 07:15 | 36.39354 | -116.12794 | 21519 ft | 404 kts | 129° |
| 2026-05-08 07:15 | 36.37513 | -116.10212 | 21042 ft | 401 kts | 129° |
| 2026-05-08 07:15 | 36.35666 | -116.07624 | 20576 ft | 398 kts | 130° |
| 2026-05-08 07:16 | 36.33832 | -116.05056 | 20112 ft | 396 kts | 130° |
| 2026-05-08 07:16 | 36.32012 | -116.02509 | 19649 ft | 393 kts | 130° |
| 2026-05-08 07:16 | 36.30200 | -115.99975 | 19397 ft | 385 kts | 130° |
| 2026-05-08 07:16 | 36.28439 | -115.97515 | 19227 ft | 375 kts | 130° |
| 2026-05-08 07:17 | 36.26756 | -115.95166 | 19058 ft | 365 kts | 130° |
| 2026-05-08 07:17 | 36.25081 | -115.92829 | 18901 ft | 356 kts | 129° |
| 2026-05-08 07:17 | 36.23520 | -115.90480 | 18561 ft | 350 kts | 126° |
| 2026-05-08 07:17 | 36.22049 | -115.88122 | 18272 ft | 341 kts | 125° |
| 2026-05-08 07:18 | 36.20609 | -115.85789 | 17924 ft | 338 kts | 125° |
| 2026-05-08 07:18 | 36.19181 | -115.83489 | 17580 ft | 335 kts | 126° |
| 2026-05-08 07:18 | 36.17760 | -115.81222 | 17265 ft | 331 kts | 126° |
| 2026-05-08 07:18 | 36.16347 | -115.78987 | 16946 ft | 328 kts | 126° |
| 2026-05-08 07:19 | 36.14966 | -115.76805 | 16638 ft | 326 kts | 126° |
| 2026-05-08 07:19 | 36.13674 | -115.74500 | 16324 ft | 323 kts | 114° |
| 2026-05-08 07:19 | 36.12821 | -115.71950 | 16058 ft | 321 kts | 108° |
| 2026-05-08 07:19 | 36.12044 | -115.69349 | 15764 ft | 323 kts | 108° |
| 2026-05-08 07:20 | 36.11262 | -115.66719 | 15458 ft | 326 kts | 108° |
| 2026-05-08 07:20 | 36.10481 | -115.64116 | 15160 ft | 327 kts | 108° |
| 2026-05-08 07:20 | 36.09679 | -115.61475 | 14857 ft | 327 kts | 108° |
| 2026-05-08 07:20 | 36.08874 | -115.58841 | 14542 ft | 326 kts | 108° |
| 2026-05-08 07:21 | 36.08072 | -115.56234 | 14235 ft | 323 kts | 108° |
| 2026-05-08 07:21 | 36.07274 | -115.53645 | 13924 ft | 320 kts | 108° |
| 2026-05-08 07:21 | 36.06485 | -115.51092 | 13605 ft | 317 kts | 108° |
| 2026-05-08 07:21 | 36.05711 | -115.48587 | 13290 ft | 314 kts | 108° |
| 2026-05-08 07:22 | 36.04935 | -115.46072 | 12986 ft | 312 kts | 108° |
| 2026-05-08 07:22 | 36.04160 | -115.43576 | 12679 ft | 309 kts | 108° |
| 2026-05-08 07:22 | 36.03391 | -115.41101 | 12425 ft | 305 kts | 108° |
| 2026-05-08 07:22 | 36.02649 | -115.38722 | 12405 ft | 288 kts | 108° |
| 2026-05-08 07:23 | 36.01948 | -115.36473 | 12291 ft | 273 kts | 108° |
| 2026-05-08 07:23 | 36.01470 | -115.34281 | 12163 ft | 256 kts | 93° |
| 2026-05-08 07:23 | 36.01343 | -115.32168 | 12044 ft | 242 kts | 89° |
| 2026-05-08 07:23 | 36.01274 | -115.30114 | 11795 ft | 237 kts | 89° |
| 2026-05-08 07:24 | 36.01206 | -115.28087 | 11425 ft | 237 kts | 89° |
| 2026-05-08 07:24 | 36.01129 | -115.26060 | 11055 ft | 236 kts | 90° |
| 2026-05-08 07:24 | 36.01044 | -115.24025 | 10702 ft | 236 kts | 90° |
| 2026-05-08 07:24 | 36.00954 | -115.22006 | 10367 ft | 234 kts | 90° |
| 2026-05-08 07:25 | 36.00860 | -115.20005 | 10078 ft | 232 kts | 90° |
| 2026-05-08 07:25 | 36.00765 | -115.18037 | 9854 ft | 229 kts | 90° |
| 2026-05-08 07:25 | 36.00571 | -115.14128 | 9399 ft | 230 kts | 90° |
| 2026-05-08 07:26 | 36.00472 | -115.12168 | 9182 ft | 233 kts | 91° |
| 2026-05-08 07:26 | 36.00371 | -115.10155 | 8960 ft | 235 kts | 91° |
| 2026-05-08 07:26 | 36.00269 | -115.08145 | 8731 ft | 235 kts | 91° |
| 2026-05-08 07:26 | 36.00166 | -115.06129 | 8507 ft | 235 kts | 91° |
| 2026-05-08 07:27 | 36.00064 | -115.04144 | 8291 ft | 232 kts | 91° |
| 2026-05-08 07:27 | 35.99963 | -115.02190 | 8079 ft | 223 kts | 91° |
| 2026-05-08 07:27 | 35.99892 | -115.00302 | 7797 ft | 218 kts | 89° |
| 2026-05-08 07:27 | 35.99886 | -114.98467 | 7453 ft | 211 kts | 89° |
| 2026-05-08 07:28 | 35.99881 | -114.96644 | 7226 ft | 213 kts | 90° |
| 2026-05-08 07:28 | 35.99877 | -114.94809 | 6964 ft | 214 kts | 89° |
| 2026-05-08 07:28 | 36.00000 | -114.93023 | 6682 ft | 213 kts | 68° |
| 2026-05-08 07:28 | 36.00850 | -114.91600 | 6441 ft | 205 kts | 34° |
| 2026-05-08 07:29 | 36.02017 | -114.90649 | 6197 ft | 203 kts | 28° |
| 2026-05-08 07:29 | 36.03300 | -114.89949 | 5896 ft | 200 kts | 4° |
| 2026-05-08 07:29 | 36.04622 | -114.90196 | 5668 ft | 190 kts | 332° |
| 2026-05-08 07:29 | 36.05759 | -114.90969 | 5436 ft | 187 kts | 326° |
| 2026-05-08 07:30 | 36.06745 | -114.91982 | 5166 ft | 183 kts | 301° |
| 2026-05-08 07:30 | 36.07211 | -114.93412 | 4936 ft | 181 kts | 275° |
| 2026-05-08 07:30 | 36.07328 | -114.94969 | 4739 ft | 184 kts | 274° |
| 2026-05-08 07:30 | 36.07384 | -114.96553 | 4527 ft | 183 kts | 271° |
| 2026-05-08 07:31 | 36.07392 | -114.98107 | 4282 ft | 174 kts | 270° |
| 2026-05-08 07:31 | 36.07389 | -114.99553 | 4057 ft | 162 kts | 270° |
| 2026-05-08 07:31 | 36.07385 | -115.00943 | 3875 ft | 165 kts | 269° |
| 2026-05-08 07:31 | 36.07382 | -115.02311 | 3688 ft | 160 kts | 270° |
| 2026-05-08 07:32 | 36.07379 | -115.03674 | 3486 ft | 157 kts | 269° |
| 2026-05-08 07:32 | 36.07367 | -115.05065 | 3224 ft | 162 kts | 269° |
| 2026-05-08 07:32 | 36.07370 | -115.06448 | 2978 ft | 162 kts | 270° |
| 2026-05-08 07:32 | 36.07382 | -115.07847 | 2759 ft | 163 kts | 270° |
| 2026-05-08 07:33 | 36.07383 | -115.09246 | 2536 ft | 163 kts | 268° |
| 2026-05-08 07:33 | 36.07370 | -115.10657 | 2345 ft | 163 kts | 268° |
| 2026-05-08 07:33 | 36.07373 | -115.12042 | 2184 ft | 162 kts | 267° |
| 2026-05-08 07:33 | 36.07373 | -115.13425 | 2072 ft | 154 kts | 264° |
| 2026-05-08 07:34 | 36.07365 | -115.14484 | 2090 ft | 95 kts | 269° |
| 2026-05-08 07:34 | 36.07364 | -115.15047 | 2096 ft | 39 kts | 270° |
| 2026-05-08 07:34 | 36.07401 | -115.15335 | 2106 ft | 28 kts | 288° |
| 2026-05-08 07:34 | 36.07477 | -115.15524 | 2106 ft | 25 kts | 300° |
| 2026-05-08 07:35 | 36.07577 | -115.15669 | 2115 ft | 20 kts | 315° |
| 2026-05-08 07:35 | 36.07676 | -115.15789 | 2120 ft | 20 kts | 318° |
| 2026-05-08 07:35 | 36.07820 | -115.15826 | 2110 ft | 25 kts | 359° |
| 2026-05-08 07:35 | 36.07967 | -115.15827 | 2107 ft | 17 kts | 360° |
| 2026-05-08 07:36 | 36.08080 | -115.15827 | 2107 ft | 16 kts | 0° |
| 2026-05-08 07:36 | 36.08157 | -115.15789 | 2105 ft | 16 kts | 66° |
| 2026-05-08 07:36 | 36.08163 | -115.15650 | 2100 ft | 13 kts | 89° |
| 2026-05-08 07:36 | 36.08159 | -115.15556 | 2098 ft | 11 kts | 103° |
| 2026-05-08 07:37 | 36.08108 | -115.15470 | 2097 ft | 14 kts | 146° |
| 2026-05-08 07:37 | 36.08034 | -115.15425 | 2097 ft | 11 kts | 155° |
| 2026-05-08 07:37 | 36.07967 | -115.15386 | 2097 ft | 10 kts | 155° |
| 2026-05-08 07:37 | 36.07903 | -115.15345 | 2098 ft | 10 kts | 144° |
| 2026-05-08 07:38 | 36.07878 | -115.15271 | 2098 ft | 10 kts | 91° |
| 2026-05-08 07:38 | 36.07877 | -115.15187 | 2098 ft | 10 kts | 89° |
| 2026-05-08 07:38 | 36.07878 | -115.15105 | 2097 ft | 9 kts | 91° |
| 2026-05-08 07:38 | 36.07873 | -115.15023 | 2097 ft | 11 kts | 95° |
| 2026-05-08 07:39 | 36.07864 | -115.14896 | 2097 ft | 17 kts | 95° |
| 2026-05-08 07:39 | 36.07855 | -115.14752 | 2096 ft | 16 kts | 95° |
| 2026-05-08 07:39 | 36.07846 | -115.14626 | 2095 ft | 14 kts | 95° |
| 2026-05-08 07:39 | 36.07839 | -115.14507 | 2095 ft | 14 kts | 94° |
| 2026-05-08 07:40 | 36.07831 | -115.14394 | 2095 ft | 13 kts | 95° |
| 2026-05-08 07:40 | 36.07828 | -115.14300 | 2095 ft | 9 kts | 84° |
| 2026-05-08 07:40 | 36.07869 | -115.14246 | 2094 ft | 9 kts | 20° |
| 2026-05-08 07:40 | 36.07930 | -115.14242 | 2094 ft | 9 kts | 359° |
| 2026-05-08 07:41 | 36.07989 | -115.14241 | 2094 ft | 8 kts | 0° |
| 2026-05-08 07:41 | 36.08046 | -115.14241 | 2094 ft | 8 kts | 359° |
| 2026-05-08 07:41 | 36.08103 | -115.14243 | 2094 ft | 8 kts | 0° |
| 2026-05-08 07:41 | 36.08158 | -115.14242 | 2094 ft | 8 kts | 360° |
| 2026-05-08 07:42 | 36.08210 | -115.14242 | 2094 ft | 7 kts | 360° |
| 2026-05-08 07:42 | 36.08262 | -115.14242 | 2093 ft | 8 kts | 2° |
| 2026-05-08 07:42 | 36.08311 | -115.14214 | 2092 ft | 9 kts | 39° |
| 2026-05-08 07:42 | 36.08357 | -115.14160 | 2091 ft | 9 kts | 44° |
| 2026-05-08 07:43 | 36.08400 | -115.14106 | 2091 ft | 9 kts | 45° |
| 2026-05-08 07:43 | 36.08442 | -115.14061 | 2091 ft | 7 kts | 23° |
| 2026-05-08 07:43 | 36.08489 | -115.14056 | 2091 ft | 6 kts | 0° |
| 2026-05-08 07:43 | 36.08529 | -115.14056 | 2091 ft | 2 kts | 1° |